createdAt,value
2024-05-09T00:00:41.348Z,100.00
2024-05-09T00:03:43.898Z,100.00
2024-05-09T00:06:48.438Z,100.00
2024-05-09T00:09:50.258Z,100.00
2024-05-09T00:12:52.072Z,100.00
2024-05-09T00:15:53.888Z,100.00
2024-05-09T00:18:55.825Z,100.00
2024-05-09T00:22:00.523Z,100.00
2024-05-09T00:25:02.561Z,100.00
2024-05-09T00:28:05.083Z,100.00
2024-05-09T00:31:06.923Z,100.00
2024-05-09T00:34:09.017Z,100.00
2024-05-09T00:37:13.602Z,100.00
2024-05-09T00:40:22.885Z,100.00
2024-05-09T00:43:33.004Z,100.00
2024-05-09T00:46:35.112Z,100.00
2024-05-09T00:49:37.101Z,100.00
2024-05-09T00:52:42.058Z,100.00
2024-05-09T00:55:44.855Z,100.00
2024-05-09T00:58:49.320Z,100.00
2024-05-09T01:01:51.288Z,100.00
2024-05-09T01:04:53.360Z,100.00
2024-05-09T01:07:57.984Z,100.00
2024-05-09T01:10:59.906Z,100.00
2024-05-09T01:14:01.963Z,100.00
2024-05-09T01:17:04.473Z,100.00
2024-05-09T01:20:10.724Z,100.00
2024-05-09T01:23:20.704Z,100.00
2024-05-09T01:26:22.611Z,100.00
2024-05-09T01:29:27.420Z,100.00
2024-05-09T01:32:29.431Z,100.00
2024-05-09T01:35:31.469Z,100.00
2024-05-09T01:38:36.119Z,100.00
2024-05-09T01:41:37.988Z,100.00
2024-05-09T01:44:39.913Z,100.00
2024-05-09T01:47:42.162Z,100.00
2024-05-09T01:50:44.260Z,100.00
2024-05-09T01:53:48.832Z,100.00
2024-05-09T01:56:50.727Z,100.00
2024-05-09T01:59:52.626Z,100.00
2024-05-09T02:02:54.711Z,100.00
2024-05-09T02:05:56.723Z,100.00
2024-05-09T02:09:01.154Z,100.00
2024-05-09T02:12:03.187Z,100.00
2024-05-09T02:15:05.652Z,100.00
2024-05-09T02:18:08.336Z,100.00
2024-05-09T02:21:10.736Z,100.00
2024-05-09T02:24:15.616Z,100.00
2024-05-09T02:27:17.538Z,100.00
2024-05-09T02:30:26.412Z,100.00
2024-05-09T02:33:38.259Z,100.00
2024-05-09T02:36:40.207Z,100.00
2024-05-09T02:39:44.616Z,100.00
2024-05-09T02:42:47.106Z,100.00
2024-05-09T02:45:49.006Z,100.00
2024-05-09T02:48:50.910Z,100.00
2024-05-09T02:51:52.852Z,100.00
2024-05-09T02:54:57.296Z,100.00
2024-05-09T02:57:59.102Z,100.00
2024-05-09T03:01:01.253Z,100.00
2024-05-09T03:04:03.430Z,100.00
2024-05-09T03:07:05.290Z,100.00
2024-05-09T03:10:18.256Z,100.00
2024-05-09T03:13:24.288Z,100.00
2024-05-09T03:16:26.077Z,100.00
2024-05-09T03:19:28.078Z,100.00
2024-05-09T03:22:29.945Z,100.00
2024-05-09T03:25:34.615Z,100.00
2024-05-09T03:28:36.375Z,100.00
2024-05-09T03:31:38.988Z,100.00
2024-05-09T03:34:40.917Z,100.00
2024-05-09T03:37:42.706Z,100.00
2024-05-09T03:40:48.727Z,100.00
2024-05-09T03:43:51.366Z,100.00
2024-05-09T03:46:53.352Z,100.00
2024-05-09T03:49:55.290Z,100.00
2024-05-09T03:52:57.253Z,100.00
2024-05-09T03:56:03.778Z,100.00
2024-05-09T03:59:05.679Z,100.00
2024-05-09T04:02:07.752Z,100.00
2024-05-09T04:05:10.450Z,100.00
2024-05-09T04:08:14.010Z,100.00
2024-05-09T04:11:19.021Z,100.00
2024-05-09T04:14:21.030Z,100.00
2024-05-09T04:17:22.962Z,100.00
2024-05-09T04:20:35.799Z,100.00
2024-05-09T04:23:41.160Z,100.00
2024-05-09T04:26:45.684Z,100.00
2024-05-09T04:29:47.619Z,100.00
2024-05-09T04:32:50.616Z,100.00
2024-05-09T04:35:52.835Z,100.00
2024-05-09T04:38:54.674Z,100.00
2024-05-09T04:41:59.184Z,100.00
2024-05-09T04:45:01.026Z,100.00
2024-05-09T04:48:03.384Z,100.00
2024-05-09T04:51:07.120Z,100.00
2024-05-09T04:54:15.632Z,100.00
2024-05-09T04:57:27.802Z,100.00
2024-05-09T05:00:35.932Z,100.00
2024-05-09T05:03:41.158Z,100.00
2024-05-09T05:06:43.137Z,100.00
2024-05-09T05:09:44.983Z,100.00
2024-05-09T05:13:08.364Z,100.00
2024-05-09T05:16:10.211Z,100.00
2024-05-09T05:19:14.282Z,100.00
2024-05-09T05:22:17.948Z,100.00
2024-05-09T05:25:19.903Z,100.00
2024-05-09T05:28:24.595Z,100.00
2024-05-09T05:31:26.485Z,100.00
2024-05-09T05:34:28.329Z,100.00
2024-05-09T05:37:30.270Z,100.00
2024-05-09T05:40:36.671Z,100.00
2024-05-09T05:43:42.693Z,100.00
2024-05-09T05:46:44.564Z,100.00
2024-05-09T05:49:46.586Z,100.00
2024-05-09T05:52:48.571Z,100.00
2024-05-09T05:55:50.508Z,100.00
2024-05-09T05:58:55.187Z,100.00
2024-05-09T06:01:57.079Z,100.00
2024-05-09T06:04:59.095Z,100.00
2024-05-09T06:08:01.539Z,100.00
2024-05-09T06:11:03.631Z,100.00
2024-05-09T06:14:08.668Z,100.00
2024-05-09T06:17:10.838Z,100.00
2024-05-09T06:20:20.254Z,100.00
2024-05-09T06:23:26.433Z,100.00
2024-05-09T06:26:28.352Z,100.00
2024-05-09T06:29:33.065Z,100.00
2024-05-09T06:32:35.162Z,100.00
2024-05-09T06:35:37.491Z,100.00
2024-05-09T06:38:39.560Z,100.00
2024-05-09T06:41:41.512Z,100.00
2024-05-09T06:44:45.988Z,100.00
2024-05-09T06:47:48.020Z,100.00
2024-05-09T06:50:50.307Z,100.00
2024-05-09T06:53:52.350Z,100.00
2024-05-09T06:56:54.208Z,100.00
2024-05-09T07:00:00.826Z,100.00
2024-05-09T07:03:07.506Z,100.00
2024-05-09T07:06:09.676Z,100.00
2024-05-09T07:09:11.582Z,100.00
2024-05-09T07:12:13.690Z,100.00
2024-05-09T07:15:18.759Z,100.00
2024-05-09T07:18:21.014Z,100.00
2024-05-09T07:21:23.205Z,100.00
2024-05-09T07:24:25.116Z,100.00
2024-05-09T07:27:27.935Z,100.00
2024-05-09T07:30:34.494Z,100.00
2024-05-09T07:33:37.134Z,100.00
2024-05-09T07:36:39.245Z,100.00
2024-05-09T07:39:41.309Z,100.00
2024-05-09T07:42:43.114Z,100.00
2024-05-09T07:45:53.028Z,100.00
2024-05-09T07:50:34.932Z,100.00
2024-05-09T07:55:23.664Z,100.00
2024-05-09T07:58:27.860Z,100.00
2024-05-09T08:01:32.493Z,100.00
2024-05-09T08:04:34.564Z,100.00
2024-05-09T08:07:39.246Z,100.00
2024-05-09T08:10:40.999Z,100.00
2024-05-09T08:13:42.981Z,100.00
2024-05-09T08:16:47.484Z,100.00
2024-05-09T08:19:49.234Z,100.00
2024-05-09T08:22:51.110Z,100.00
2024-05-09T08:25:53.119Z,100.00
2024-05-09T08:28:55.124Z,100.00
2024-05-09T08:31:59.725Z,100.00
2024-05-09T08:35:01.976Z,100.00
2024-05-09T08:38:06.881Z,100.00
2024-05-09T08:41:09.054Z,100.00
2024-05-09T08:44:13.824Z,100.00
2024-05-09T08:47:18.610Z,100.00
2024-05-09T08:50:31.639Z,100.00
2024-05-09T08:53:39.959Z,100.00
2024-05-09T08:56:46.314Z,100.00
2024-05-09T08:59:52.019Z,100.00
2024-05-09T09:02:58.437Z,100.00
2024-05-09T09:06:05.406Z,100.00
2024-05-09T09:09:09.767Z,100.00
2024-05-09T09:12:12.108Z,100.00
2024-05-09T09:15:14.041Z,100.00
2024-05-09T09:18:19.285Z,99.55
2024-05-09T09:21:22.096Z,100.00
2024-05-09T09:24:23.910Z,99.83
2024-05-09T09:27:25.822Z,99.15
2024-05-09T09:30:35.298Z,100.00
2024-05-09T09:33:45.020Z,99.30
2024-05-09T09:36:48.516Z,100.00
2024-05-09T09:39:51.035Z,100.00
2024-05-09T09:42:58.003Z,98.82
2024-05-09T09:46:02.003Z,94.72
2024-05-09T09:49:07.396Z,100.00
2024-05-09T09:52:11.151Z,94.21
2024-05-09T09:55:13.612Z,95.11
2024-05-09T09:58:17.641Z,90.47
2024-05-09T10:01:19.883Z,94.74
2024-05-09T10:04:24.700Z,90.94
2024-05-09T10:07:29.666Z,92.97
2024-05-09T10:10:33.471Z,91.75
2024-05-09T10:13:35.760Z,90.64
2024-05-09T10:16:43.566Z,90.13
2024-05-09T10:19:48.285Z,85.90
2024-05-09T10:22:50.549Z,84.20
2024-05-09T10:25:57.516Z,88.04
2024-05-09T10:28:59.584Z,81.01
2024-05-09T10:32:02.804Z,88.46
2024-05-09T10:35:12.192Z,86.66
2024-05-09T10:38:14.829Z,83.30
2024-05-09T10:41:17.256Z,85.19
2024-05-09T10:44:21.562Z,83.33
2024-05-09T10:47:23.603Z,82.54
2024-05-09T10:50:31.854Z,85.87
2024-05-09T10:53:40.213Z,85.47
2024-05-09T10:56:42.299Z,85.18
2024-05-09T10:59:45.550Z,91.06
2024-05-09T11:02:48.398Z,84.31
2024-05-09T11:05:53.402Z,88.42
2024-05-09T11:08:57.193Z,84.98
2024-05-09T11:11:59.367Z,84.88
2024-05-09T11:15:01.321Z,87.48
2024-05-09T11:18:03.401Z,80.08
2024-05-09T11:21:13.543Z,84.32
2024-05-09T11:24:15.882Z,82.97
2024-05-09T11:27:20.939Z,82.60
2024-05-09T11:30:29.770Z,84.67
2024-05-09T11:33:36.843Z,82.18
2024-05-09T11:36:41.643Z,83.36
2024-05-09T11:39:44.104Z,88.43
2024-05-09T11:42:48.773Z,84.07
2024-05-09T11:45:51.853Z,81.32
2024-05-09T11:48:53.981Z,84.35
2024-05-09T11:51:58.573Z,82.89
2024-05-09T11:55:01.717Z,82.27
2024-05-09T11:58:04.003Z,77.52
2024-05-09T12:01:05.966Z,81.93
2024-05-09T12:04:09.184Z,79.68
2024-05-09T12:07:14.063Z,78.74
2024-05-09T12:10:19.835Z,79.60
2024-05-09T12:13:26.303Z,78.42
2024-05-09T12:16:28.649Z,82.16
2024-05-09T12:19:31.108Z,86.55
2024-05-09T12:22:35.714Z,76.83
2024-05-09T12:25:39.189Z,79.87
2024-05-09T12:28:41.833Z,80.27
2024-05-09T12:31:44.193Z,75.03
2024-05-09T12:34:48.537Z,78.31
2024-05-09T12:37:53.046Z,78.13
2024-05-09T12:40:55.190Z,80.76
2024-05-09T12:43:57.074Z,72.52
2024-05-09T12:46:58.927Z,74.28
2024-05-09T12:50:00.894Z,72.28
2024-05-09T12:53:05.819Z,77.91
2024-05-09T12:56:09.441Z,78.30
2024-05-09T12:59:11.508Z,82.19
2024-05-09T13:02:15.480Z,77.26
2024-05-09T13:05:17.727Z,80.63
2024-05-09T13:08:22.500Z,79.42
2024-05-09T13:11:24.402Z,80.95
2024-05-09T13:14:26.303Z,79.08
2024-05-09T13:17:28.373Z,79.08
2024-05-09T13:20:33.659Z,73.53
2024-05-09T13:23:40.085Z,75.48
2024-05-09T13:26:41.938Z,74.61
2024-05-09T13:29:44.319Z,72.22
2024-05-09T13:32:48.899Z,73.61
2024-05-09T13:35:51.280Z,69.26
2024-05-09T13:38:57.164Z,70.83
2024-05-09T13:41:59.045Z,75.38
2024-05-09T13:45:00.960Z,75.65
2024-05-09T13:48:04.123Z,74.97
2024-05-09T13:51:06.340Z,68.70
2024-05-09T13:54:10.885Z,69.78
2024-05-09T13:57:13.058Z,68.88
2024-05-09T14:00:26.982Z,71.70
2024-05-09T14:03:37.399Z,72.39
2024-05-09T14:06:39.498Z,75.81
2024-05-09T14:09:45.303Z,74.14
2024-05-09T14:12:47.181Z,74.69
2024-05-09T14:15:49.476Z,72.44
2024-05-09T14:18:51.643Z,71.74
2024-05-09T14:21:53.553Z,72.37
2024-05-09T14:24:58.117Z,75.92
2024-05-09T14:28:00.442Z,73.12
2024-05-09T14:31:02.460Z,70.41
2024-05-09T14:34:04.506Z,73.72
2024-05-09T14:37:06.873Z,73.23
2024-05-09T14:40:25.981Z,68.18
2024-05-09T14:43:33.788Z,69.33
2024-05-09T14:46:35.724Z,70.11
2024-05-09T14:49:37.729Z,67.71
2024-05-09T14:52:39.646Z,67.47
2024-05-09T14:55:44.372Z,68.47
2024-05-09T14:58:46.540Z,66.49
2024-05-09T15:01:48.607Z,67.28
2024-05-09T15:04:50.836Z,68.69
2024-05-09T15:07:52.855Z,70.57
2024-05-09T15:10:57.701Z,65.88
2024-05-09T15:13:59.624Z,70.99
2024-05-09T15:17:01.738Z,64.53
2024-05-09T15:20:09.087Z,63.41
2024-05-09T15:23:11.565Z,62.29
2024-05-09T15:26:16.015Z,61.61
2024-05-09T15:29:18.013Z,64.41
2024-05-09T15:32:19.889Z,63.62
2024-05-09T15:35:21.746Z,68.24
2024-05-09T15:38:23.841Z,65.67
2024-05-09T15:41:28.409Z,68.90
2024-05-09T15:44:30.442Z,70.19
2024-05-09T15:47:34.563Z,71.09
2024-05-09T15:50:40.728Z,70.93
2024-05-09T15:53:44.210Z,76.24
2024-05-09T15:56:50.912Z,68.89
2024-05-09T15:59:55.724Z,66.12
2024-05-09T16:02:57.775Z,68.49
2024-05-09T16:05:59.785Z,67.57
2024-05-09T16:09:01.953Z,65.35
2024-05-09T16:12:11.619Z,64.64
2024-05-09T16:15:13.653Z,67.49
2024-05-09T16:18:15.800Z,73.86
2024-05-09T16:21:17.849Z,77.74
2024-05-09T16:24:19.706Z,77.27
2024-05-09T16:27:24.189Z,71.03
2024-05-09T16:30:32.172Z,70.18
2024-05-09T16:33:37.399Z,73.16
2024-05-09T16:36:39.528Z,67.75
2024-05-09T16:39:41.471Z,65.89
2024-05-09T16:42:46.210Z,66.60
2024-05-09T16:45:48.272Z,71.40
2024-05-09T16:48:53.242Z,69.08
2024-05-09T16:51:55.387Z,74.22
2024-05-09T16:54:57.448Z,73.01
2024-05-09T16:58:02.607Z,72.08
2024-05-09T17:01:05.158Z,72.52
2024-05-09T17:04:07.310Z,71.34
2024-05-09T17:07:09.399Z,71.78
2024-05-09T17:10:19.344Z,69.28
2024-05-09T17:13:32.403Z,67.96
2024-05-09T17:16:34.472Z,67.23
2024-05-09T17:19:40.535Z,72.56
2024-05-09T17:22:42.639Z,69.17
2024-05-09T17:25:44.583Z,69.53
2024-05-09T17:28:49.454Z,69.56
2024-05-09T17:31:51.420Z,69.90
2024-05-09T17:34:53.381Z,70.10
2024-05-09T17:37:55.373Z,70.33
2024-05-09T17:40:57.586Z,75.33
2024-05-09T17:44:03.060Z,72.87
2024-05-09T17:47:06.087Z,72.01
2024-05-09T17:50:15.024Z,77.30
2024-05-09T17:53:22.992Z,77.42
2024-05-09T17:56:25.333Z,81.36
2024-05-09T17:59:30.083Z,81.03
2024-05-09T18:02:33.130Z,86.24
2024-05-09T18:05:36.146Z,91.56
2024-05-09T18:08:38.900Z,90.26
2024-05-09T18:11:40.945Z,93.18
2024-05-09T18:14:45.452Z,90.05
2024-05-09T18:17:47.568Z,95.19
2024-05-09T18:20:49.548Z,100.00
2024-05-09T18:23:54.005Z,100.00
2024-05-09T18:26:56.824Z,100.00
2024-05-09T18:30:01.358Z,100.00
2024-05-09T18:33:03.829Z,100.00
2024-05-09T18:36:06.948Z,100.00
2024-05-09T18:39:08.853Z,100.00
2024-05-09T18:42:10.750Z,100.00
2024-05-09T18:45:15.243Z,100.00
2024-05-09T18:48:17.232Z,100.00
2024-05-09T18:51:19.309Z,100.00
2024-05-09T18:54:21.165Z,100.00
2024-05-09T18:57:23.111Z,100.00
2024-05-09T19:00:34.489Z,100.00
2024-05-09T19:03:39.839Z,100.00
2024-05-09T19:06:41.798Z,100.00
2024-05-09T19:09:43.589Z,100.00
2024-05-09T19:12:45.458Z,100.00
2024-05-09T19:15:50.236Z,100.00
2024-05-09T19:18:53.808Z,100.00
2024-05-09T19:21:57.772Z,100.00
2024-05-09T19:24:59.783Z,100.00
2024-05-09T19:28:01.913Z,100.00
2024-05-09T19:31:06.569Z,100.00
2024-05-09T19:34:08.462Z,100.00
2024-05-09T19:37:10.971Z,100.00
2024-05-09T19:40:20.858Z,100.00
2024-05-09T19:43:32.219Z,100.00
2024-05-09T19:46:38.470Z,100.00
2024-05-09T19:49:40.531Z,100.00
2024-05-09T19:52:43.090Z,100.00
2024-05-09T19:55:45.012Z,100.00
2024-05-09T19:58:46.915Z,100.00
2024-05-09T20:01:51.611Z,100.00
2024-05-09T20:04:53.629Z,100.00
2024-05-09T20:07:55.653Z,100.00
2024-05-09T20:10:57.571Z,100.00
2024-05-09T20:13:59.407Z,100.00
2024-05-09T20:17:04.193Z,100.00
2024-05-09T20:20:11.352Z,100.00
2024-05-09T20:23:18.509Z,100.00
2024-05-09T20:26:20.525Z,100.00
2024-05-09T20:29:22.447Z,100.00
2024-05-09T20:32:27.032Z,100.00
2024-05-09T20:35:31.819Z,100.00
2024-05-09T20:38:33.874Z,100.00
2024-05-09T20:41:37.131Z,100.00
2024-05-09T20:44:39.059Z,100.00
2024-05-09T20:47:43.632Z,100.00
2024-05-09T20:50:45.712Z,100.00
2024-05-09T20:53:47.654Z,100.00
2024-05-09T20:56:49.507Z,100.00
2024-05-09T20:59:51.369Z,100.00
2024-05-09T21:02:55.954Z,100.00
2024-05-09T21:05:58.162Z,100.00
2024-05-09T21:09:00.056Z,100.00
2024-05-09T21:12:01.946Z,100.00
2024-05-09T21:15:04.687Z,100.00
2024-05-09T21:18:09.298Z,100.00
2024-05-09T21:21:11.545Z,100.00
2024-05-09T21:24:13.451Z,100.00
2024-05-09T21:27:15.319Z,100.00
2024-05-09T21:30:26.735Z,100.00
2024-05-09T21:33:37.354Z,100.00
2024-05-09T21:36:39.301Z,100.00
2024-05-09T21:39:41.232Z,100.00
2024-05-09T21:42:43.131Z,100.00
2024-05-09T21:45:45.135Z,100.00
2024-05-09T21:48:49.850Z,100.00
2024-05-09T21:51:51.913Z,100.00
2024-05-09T21:54:53.828Z,100.00
2024-05-09T21:57:56.641Z,100.00
2024-05-09T22:00:58.862Z,100.00
2024-05-09T22:04:03.541Z,100.00
2024-05-09T22:07:06.566Z,100.00
2024-05-09T22:10:19.492Z,100.00
2024-05-09T22:13:24.846Z,100.00
2024-05-09T22:16:26.975Z,100.00
2024-05-09T22:19:31.482Z,100.00
2024-05-09T22:22:33.349Z,100.00
2024-05-09T22:25:35.547Z,100.00
2024-05-09T22:28:37.463Z,100.00
2024-05-09T22:31:39.263Z,100.00
2024-05-09T22:34:43.760Z,100.00
2024-05-09T22:37:45.699Z,100.00
2024-05-09T22:40:49.685Z,100.00
2024-05-09T22:43:52.083Z,100.00
2024-05-09T22:46:53.946Z,100.00
2024-05-09T22:49:58.492Z,100.00
2024-05-09T22:53:00.314Z,100.00
2024-05-09T22:56:02.211Z,100.00
2024-05-09T22:59:04.104Z,100.00
2024-05-09T23:02:06.151Z,100.00
2024-05-09T23:05:10.902Z,100.00
2024-05-09T23:08:12.953Z,100.00
2024-05-09T23:11:14.864Z,100.00
2024-05-09T23:14:16.821Z,100.00
2024-05-09T23:17:18.969Z,100.00
2024-05-09T23:20:33.337Z,100.00
2024-05-09T23:23:39.953Z,100.00
2024-05-09T23:26:43.176Z,100.00
2024-05-09T23:29:45.231Z,100.00
2024-05-09T23:32:47.145Z,100.00
2024-05-09T23:35:51.683Z,100.00
2024-05-09T23:38:53.546Z,100.00
2024-05-09T23:41:55.762Z,100.00
2024-05-09T23:44:58.366Z,100.00
2024-05-09T23:48:00.513Z,100.00
2024-05-09T23:51:05.833Z,100.00
2024-05-09T23:54:08.599Z,100.00
2024-05-09T23:57:10.464Z,100.00
